Terminal Aerodrome Forecast
Issued by NWS

Home | Current Version | Previous Version | Text Only | Print | Product List | Glossary On
Versions: 1 2 3 4 5 6 7 8 9 10 11 12 13 14 15 16 17 18 19 20 21 22 23
528
FTUS43 KGRR 180651 AAA
TAFLAN
TAF AMD
KLAN 180651Z 1807/1906 23010KT P6SM VCSH OVC050
     FM180900 25011G18KT P6SM VCSH BKN025
     FM181700 26014G20KT P6SM OVC019
     FM182000 27013G20KT P6SM OVC035
     FM182300 27012KT P6SM BKN040=

USA.gov is the U.S. government's official web portal to all federal, state and local government web resources and services.